sensor_id;sensor_type;location;lat;lon;timestamp;temperature;humidity
16128;DHT22;8168;49.036;7.690;2023-09-19T00:01:55;17.20;99.90
16128;DHT22;8168;49.036;7.690;2023-09-19T00:04:27;17.20;99.90
16128;DHT22;8168;49.036;7.690;2023-09-19T00:06:59;17.20;99.90
16128;DHT22;8168;49.036;7.690;2023-09-19T00:09:32;17.30;99.90
16128;DHT22;8168;49.036;7.690;2023-09-19T00:12:07;17.30;99.90
16128;DHT22;8168;49.036;7.690;2023-09-19T00:14:39;17.30;99.90
16128;DHT22;8168;49.036;7.690;2023-09-19T00:17:10;17.40;99.90
16128;DHT22;8168;49.036;7.690;2023-09-19T00:19:41;17.40;99.90
16128;DHT22;8168;49.036;7.690;2023-09-19T00:22:13;17.30;99.90
16128;DHT22;8168;49.036;7.690;2023-09-19T00:24:46;17.40;99.90
16128;DHT22;8168;49.036;7.690;2023-09-19T00:27:16;17.40;99.90
16128;DHT22;8168;49.036;7.690;2023-09-19T00:29:47;17.40;99.90
16128;DHT22;8168;49.036;7.690;2023-09-19T00:32:18;17.40;99.90
16128;DHT22;8168;49.036;7.690;2023-09-19T00:34:48;17.50;99.90
16128;DHT22;8168;49.036;7.690;2023-09-19T00:37:19;17.50;99.90
16128;DHT22;8168;49.036;7.690;2023-09-19T00:39:50;17.50;99.90
16128;DHT22;8168;49.036;7.690;2023-09-19T00:42:21;17.50;99.90
16128;DHT22;8168;49.036;7.690;2023-09-19T00:44:51;17.50;99.90
16128;DHT22;8168;49.036;7.690;2023-09-19T00:47:22;17.50;99.90
16128;DHT22;8168;49.036;7.690;2023-09-19T00:49:53;17.60;99.90
16128;DHT22;8168;49.036;7.690;2023-09-19T00:52:24;17.60;99.90
16128;DHT22;8168;49.036;7.690;2023-09-19T00:54:55;17.50;99.90
16128;DHT22;8168;49.036;7.690;2023-09-19T00:57:26;17.50;99.90
16128;DHT22;8168;49.036;7.690;2023-09-19T00:59:57;17.60;99.90
16128;DHT22;8168;49.036;7.690;2023-09-19T01:02:28;17.50;99.90
16128;DHT22;8168;49.036;7.690;2023-09-19T01:05:00;17.50;99.90
16128;DHT22;8168;49.036;7.690;2023-09-19T01:07:31;17.60;99.90
16128;DHT22;8168;49.036;7.690;2023-09-19T01:10:04;17.60;99.90
16128;DHT22;8168;49.036;7.690;2023-09-19T01:20:52;17.60;99.90
16128;DHT22;8168;49.036;7.690;2023-09-19T01:29:39;17.60;99.90
16128;DHT22;8168;49.036;7.690;2023-09-19T01:32:11;17.50;99.90
16128;DHT22;8168;49.036;7.690;2023-09-19T01:34:52;17.50;99.90
16128;DHT22;8168;49.036;7.690;2023-09-19T01:37:23;17.50;99.90
16128;DHT22;8168;49.036;7.690;2023-09-19T01:40:05;17.50;99.90
16128;DHT22;8168;49.036;7.690;2023-09-19T01:51:21;17.50;99.90
16128;DHT22;8168;49.036;7.690;2023-09-19T01:56:37;17.50;99.90
16128;DHT22;8168;49.036;7.690;2023-09-19T01:59:13;17.40;99.90
16128;DHT22;8168;49.036;7.690;2023-09-19T02:01:47;17.40;99.90
16128;DHT22;8168;49.036;7.690;2023-09-19T02:04:18;17.40;99.90
16128;DHT22;8168;49.036;7.690;2023-09-19T02:06:48;17.40;99.90
16128;DHT22;8168;49.036;7.690;2023-09-19T02:09:19;17.40;99.90
16128;DHT22;8168;49.036;7.690;2023-09-19T02:11:50;17.30;99.90
16128;DHT22;8168;49.036;7.690;2023-09-19T02:14:20;17.40;99.90
16128;DHT22;8168;49.036;7.690;2023-09-19T02:16:52;17.30;99.90
16128;DHT22;8168;49.036;7.690;2023-09-19T02:19:24;17.30;99.90
16128;DHT22;8168;49.036;7.690;2023-09-19T02:21:54;17.40;99.90
16128;DHT22;8168;49.036;7.690;2023-09-19T02:24:25;17.30;99.90
16128;DHT22;8168;49.036;7.690;2023-09-19T02:26:57;17.30;99.90
16128;DHT22;8168;49.036;7.690;2023-09-19T02:29:30;17.30;99.90
16128;DHT22;8168;49.036;7.690;2023-09-19T02:32:01;17.30;99.90
16128;DHT22;8168;49.036;7.690;2023-09-19T02:34:32;17.20;99.90
16128;DHT22;8168;49.036;7.690;2023-09-19T02:37:03;17.20;99.90
16128;DHT22;8168;49.036;7.690;2023-09-19T02:39:35;17.20;99.90
16128;DHT22;8168;49.036;7.690;2023-09-19T02:42:06;17.20;99.90
16128;DHT22;8168;49.036;7.690;2023-09-19T02:44:37;17.10;99.90
16128;DHT22;8168;49.036;7.690;2023-09-19T02:47:08;17.20;99.90
16128;DHT22;8168;49.036;7.690;2023-09-19T02:49:39;17.10;99.90
16128;DHT22;8168;49.036;7.690;2023-09-19T02:52:11;17.20;99.90
16128;DHT22;8168;49.036;7.690;2023-09-19T02:54:41;17.20;99.90
16128;DHT22;8168;49.036;7.690;2023-09-19T02:57:15;17.10;99.90
16128;DHT22;8168;49.036;7.690;2023-09-19T02:59:48;17.20;99.90
16128;DHT22;8168;49.036;7.690;2023-09-19T03:02:18;17.10;99.90
16128;DHT22;8168;49.036;7.690;2023-09-19T03:04:49;17.10;99.90
16128;DHT22;8168;49.036;7.690;2023-09-19T03:07:21;17.10;99.90
16128;DHT22;8168;49.036;7.690;2023-09-19T03:09:52;17.20;99.90
16128;DHT22;8168;49.036;7.690;2023-09-19T03:12:23;17.10;99.90
16128;DHT22;8168;49.036;7.690;2023-09-19T03:14:53;17.10;99.90
16128;DHT22;8168;49.036;7.690;2023-09-19T03:17:26;17.10;99.90
16128;DHT22;8168;49.036;7.690;2023-09-19T03:19:56;17.20;99.90
16128;DHT22;8168;49.036;7.690;2023-09-19T03:22:27;17.10;99.90
16128;DHT22;8168;49.036;7.690;2023-09-19T03:24:58;17.10;99.90
16128;DHT22;8168;49.036;7.690;2023-09-19T03:27:31;17.10;99.90
16128;DHT22;8168;49.036;7.690;2023-09-19T03:30:01;17.10;99.90
16128;DHT22;8168;49.036;7.690;2023-09-19T03:32:37;17.10;99.90
16128;DHT22;8168;49.036;7.690;2023-09-19T03:35:13;17.00;99.90
16128;DHT22;8168;49.036;7.690;2023-09-19T03:37:44;17.00;99.90
16128;DHT22;8168;49.036;7.690;2023-09-19T03:40:15;17.00;99.90
16128;DHT22;8168;49.036;7.690;2023-09-19T03:42:47;17.00;99.90
16128;DHT22;8168;49.036;7.690;2023-09-19T03:45:18;16.90;99.90
16128;DHT22;8168;49.036;7.690;2023-09-19T03:47:49;17.00;99.90
16128;DHT22;8168;49.036;7.690;2023-09-19T03:50:20;16.90;99.90
16128;DHT22;8168;49.036;7.690;2023-09-19T03:52:50;16.90;99.90
16128;DHT22;8168;49.036;7.690;2023-09-19T03:55:26;16.80;99.90
16128;DHT22;8168;49.036;7.690;2023-09-19T03:57:57;16.80;99.90
16128;DHT22;8168;49.036;7.690;2023-09-19T04:00:27;16.80;99.90
16128;DHT22;8168;49.036;7.690;2023-09-19T04:03:00;16.80;99.90
16128;DHT22;8168;49.036;7.690;2023-09-19T04:05:32;16.80;99.90
16128;DHT22;8168;49.036;7.690;2023-09-19T04:08:04;16.80;99.90
16128;DHT22;8168;49.036;7.690;2023-09-19T04:10:35;16.80;99.90
16128;DHT22;8168;49.036;7.690;2023-09-19T04:13:06;16.80;99.90
16128;DHT22;8168;49.036;7.690;2023-09-19T04:15:38;16.80;99.90
16128;DHT22;8168;49.036;7.690;2023-09-19T04:18:10;16.80;99.90
16128;DHT22;8168;49.036;7.690;2023-09-19T04:20:41;16.80;99.90
16128;DHT22;8168;49.036;7.690;2023-09-19T04:23:11;16.80;99.90
16128;DHT22;8168;49.036;7.690;2023-09-19T04:25:42;16.80;99.90
16128;DHT22;8168;49.036;7.690;2023-09-19T04:28:13;16.80;99.90
16128;DHT22;8168;49.036;7.690;2023-09-19T04:30:44;16.80;99.90
16128;DHT22;8168;49.036;7.690;2023-09-19T04:33:14;16.80;99.90
16128;DHT22;8168;49.036;7.690;2023-09-19T04:35:45;16.80;99.90
16128;DHT22;8168;49.036;7.690;2023-09-19T04:38:15;16.80;99.90
16128;DHT22;8168;49.036;7.690;2023-09-19T04:40:47;16.80;99.90
16128;DHT22;8168;49.036;7.690;2023-09-19T04:43:17;16.80;99.90
16128;DHT22;8168;49.036;7.690;2023-09-19T04:45:48;16.80;99.90
16128;DHT22;8168;49.036;7.690;2023-09-19T04:48:19;16.70;99.90
16128;DHT22;8168;49.036;7.690;2023-09-19T04:50:50;16.70;99.90
16128;DHT22;8168;49.036;7.690;2023-09-19T04:53:21;14.00;99.90
16128;DHT22;8168;49.036;7.690;2023-09-19T04:55:53;16.60;99.90
16128;DHT22;8168;49.036;7.690;2023-09-19T04:58:25;16.60;99.90
16128;DHT22;8168;49.036;7.690;2023-09-19T05:00:56;16.60;99.90
16128;DHT22;8168;49.036;7.690;2023-09-19T05:03:27;16.50;99.90
16128;DHT22;8168;49.036;7.690;2023-09-19T05:05:57;16.50;99.90
16128;DHT22;8168;49.036;7.690;2023-09-19T05:08:28;16.50;99.90
16128;DHT22;8168;49.036;7.690;2023-09-19T05:11:01;16.50;99.90
16128;DHT22;8168;49.036;7.690;2023-09-19T05:13:32;16.40;99.90
16128;DHT22;8168;49.036;7.690;2023-09-19T05:16:02;16.40;99.90
16128;DHT22;8168;49.036;7.690;2023-09-19T05:18:33;16.40;99.90
16128;DHT22;8168;49.036;7.690;2023-09-19T05:21:04;16.40;99.90
16128;DHT22;8168;49.036;7.690;2023-09-19T05:23:34;16.40;99.90
16128;DHT22;8168;49.036;7.690;2023-09-19T05:26:05;16.40;99.90
16128;DHT22;8168;49.036;7.690;2023-09-19T05:28:36;16.50;99.90
16128;DHT22;8168;49.036;7.690;2023-09-19T05:31:08;16.40;99.90
16128;DHT22;8168;49.036;7.690;2023-09-19T05:33:38;16.40;99.90
16128;DHT22;8168;49.036;7.690;2023-09-19T05:36:09;16.40;99.90
16128;DHT22;8168;49.036;7.690;2023-09-19T05:38:42;16.40;99.90
16128;DHT22;8168;49.036;7.690;2023-09-19T05:41:14;16.40;99.90
16128;DHT22;8168;49.036;7.690;2023-09-19T05:43:49;16.40;99.90
16128;DHT22;8168;49.036;7.690;2023-09-19T05:46:20;16.40;99.90
16128;DHT22;8168;49.036;7.690;2023-09-19T05:48:51;16.40;99.90
16128;DHT22;8168;49.036;7.690;2023-09-19T05:51:22;16.40;99.90
16128;DHT22;8168;49.036;7.690;2023-09-19T05:53:53;16.40;99.90
16128;DHT22;8168;49.036;7.690;2023-09-19T05:56:25;16.50;99.90
16128;DHT22;8168;49.036;7.690;2023-09-19T05:58:55;16.40;99.90
16128;DHT22;8168;49.036;7.690;2023-09-19T06:01:26;16.40;99.90
16128;DHT22;8168;49.036;7.690;2023-09-19T06:03:57;16.40;99.90
16128;DHT22;8168;49.036;7.690;2023-09-19T06:06:30;16.40;99.90
16128;DHT22;8168;49.036;7.690;2023-09-19T06:09:01;16.40;99.90
16128;DHT22;8168;49.036;7.690;2023-09-19T06:11:32;16.40;99.90
16128;DHT22;8168;49.036;7.690;2023-09-19T06:14:05;16.40;99.90
16128;DHT22;8168;49.036;7.690;2023-09-19T06:16:36;16.40;99.90
16128;DHT22;8168;49.036;7.690;2023-09-19T06:19:08;16.40;99.90
16128;DHT22;8168;49.036;7.690;2023-09-19T06:21:40;16.40;99.90
16128;DHT22;8168;49.036;7.690;2023-09-19T06:24:11;16.40;99.90
16128;DHT22;8168;49.036;7.690;2023-09-19T06:26:41;16.40;99.90
16128;DHT22;8168;49.036;7.690;2023-09-19T06:29:14;16.40;99.90
16128;DHT22;8168;49.036;7.690;2023-09-19T06:31:45;16.50;99.90
16128;DHT22;8168;49.036;7.690;2023-09-19T06:34:15;16.50;99.90
16128;DHT22;8168;49.036;7.690;2023-09-19T06:36:46;16.50;99.90
16128;DHT22;8168;49.036;7.690;2023-09-19T06:39:17;16.50;99.90
16128;DHT22;8168;49.036;7.690;2023-09-19T06:41:47;16.50;99.90
16128;DHT22;8168;49.036;7.690;2023-09-19T06:44:19;16.40;99.90
16128;DHT22;8168;49.036;7.690;2023-09-19T06:46:52;16.40;99.90
16128;DHT22;8168;49.036;7.690;2023-09-19T06:49:22;16.40;99.90
16128;DHT22;8168;49.036;7.690;2023-09-19T06:51:54;16.40;99.90
16128;DHT22;8168;49.036;7.690;2023-09-19T06:54:25;16.40;99.90
16128;DHT22;8168;49.036;7.690;2023-09-19T06:56:58;16.40;99.90
16128;DHT22;8168;49.036;7.690;2023-09-19T06:59:29;16.50;99.90
16128;DHT22;8168;49.036;7.690;2023-09-19T07:01:59;16.50;99.90
16128;DHT22;8168;49.036;7.690;2023-09-19T07:04:30;16.60;99.90
16128;DHT22;8168;49.036;7.690;2023-09-19T07:07:01;16.60;99.90
16128;DHT22;8168;49.036;7.690;2023-09-19T07:09:31;16.50;99.90
16128;DHT22;8168;49.036;7.690;2023-09-19T07:12:02;16.60;99.90
16128;DHT22;8168;49.036;7.690;2023-09-19T07:14:33;16.60;99.90
16128;DHT22;8168;49.036;7.690;2023-09-19T07:17:03;16.60;99.90
16128;DHT22;8168;49.036;7.690;2023-09-19T07:19:34;16.60;99.90
16128;DHT22;8168;49.036;7.690;2023-09-19T07:22:04;17.90;99.90
16128;DHT22;8168;49.036;7.690;2023-09-19T07:24:35;16.60;99.90
16128;DHT22;8168;49.036;7.690;2023-09-19T07:27:07;16.60;99.90
16128;DHT22;8168;49.036;7.690;2023-09-19T07:29:37;16.60;99.90
16128;DHT22;8168;49.036;7.690;2023-09-19T07:32:08;16.60;99.90
16128;DHT22;8168;49.036;7.690;2023-09-19T07:34:40;16.70;99.90
16128;DHT22;8168;49.036;7.690;2023-09-19T07:37:11;16.70;99.90
16128;DHT22;8168;49.036;7.690;2023-09-19T07:39:43;16.70;99.90
16128;DHT22;8168;49.036;7.690;2023-09-19T07:42:15;16.80;99.90
16128;DHT22;8168;49.036;7.690;2023-09-19T07:44:48;16.80;99.90
16128;DHT22;8168;49.036;7.690;2023-09-19T07:47:21;16.80;99.90
16128;DHT22;8168;49.036;7.690;2023-09-19T07:49:51;16.80;99.90
16128;DHT22;8168;49.036;7.690;2023-09-19T07:52:22;16.80;99.90
16128;DHT22;8168;49.036;7.690;2023-09-19T07:54:53;16.80;99.90
16128;DHT22;8168;49.036;7.690;2023-09-19T07:57:24;16.80;99.90
16128;DHT22;8168;49.036;7.690;2023-09-19T07:59:55;16.80;99.90
16128;DHT22;8168;49.036;7.690;2023-09-19T08:02:25;16.80;99.90
16128;DHT22;8168;49.036;7.690;2023-09-19T08:04:58;16.90;99.90
16128;DHT22;8168;49.036;7.690;2023-09-19T08:07:30;16.90;99.90
16128;DHT22;8168;49.036;7.690;2023-09-19T08:10:01;16.90;99.90
16128;DHT22;8168;49.036;7.690;2023-09-19T08:12:32;16.90;99.90
16128;DHT22;8168;49.036;7.690;2023-09-19T08:15:03;16.90;99.90
16128;DHT22;8168;49.036;7.690;2023-09-19T08:17:35;16.90;99.90
16128;DHT22;8168;49.036;7.690;2023-09-19T08:20:07;17.00;99.90
16128;DHT22;8168;49.036;7.690;2023-09-19T08:22:38;17.00;99.90
16128;DHT22;8168;49.036;7.690;2023-09-19T08:25:08;17.10;99.90
16128;DHT22;8168;49.036;7.690;2023-09-19T08:27:39;17.20;99.90
16128;DHT22;8168;49.036;7.690;2023-09-19T08:30:10;17.20;99.90
16128;DHT22;8168;49.036;7.690;2023-09-19T08:32:41;17.20;99.90
16128;DHT22;8168;49.036;7.690;2023-09-19T08:35:13;17.20;99.90
16128;DHT22;8168;49.036;7.690;2023-09-19T08:37:44;17.30;99.90
16128;DHT22;8168;49.036;7.690;2023-09-19T08:40:18;17.30;99.90
16128;DHT22;8168;49.036;7.690;2023-09-19T08:42:54;17.30;99.90
16128;DHT22;8168;49.036;7.690;2023-09-19T08:45:25;17.40;99.90
16128;DHT22;8168;49.036;7.690;2023-09-19T08:48:20;17.40;99.90
16128;DHT22;8168;49.036;7.690;2023-09-19T08:51:06;17.30;99.90
16128;DHT22;8168;49.036;7.690;2023-09-19T08:56:29;17.50;99.90
16128;DHT22;8168;49.036;7.690;2023-09-19T08:59:06;17.50;99.90
16128;DHT22;8168;49.036;7.690;2023-09-19T09:01:42;17.40;99.90
16128;DHT22;8168;49.036;7.690;2023-09-19T09:04:13;17.40;99.90
16128;DHT22;8168;49.036;7.690;2023-09-19T09:06:44;17.30;99.90
16128;DHT22;8168;49.036;7.690;2023-09-19T09:09:17;17.30;99.90
16128;DHT22;8168;49.036;7.690;2023-09-19T09:11:48;17.30;99.90
16128;DHT22;8168;49.036;7.690;2023-09-19T09:14:23;17.30;99.90
16128;DHT22;8168;49.036;7.690;2023-09-19T09:16:55;17.40;99.90
16128;DHT22;8168;49.036;7.690;2023-09-19T09:19:30;17.40;99.90
16128;DHT22;8168;49.036;7.690;2023-09-19T09:22:11;17.40;99.90
16128;DHT22;8168;49.036;7.690;2023-09-19T09:24:53;17.40;99.90
16128;DHT22;8168;49.036;7.690;2023-09-19T09:27:24;17.40;99.90
16128;DHT22;8168;49.036;7.690;2023-09-19T09:29:55;17.50;99.90
16128;DHT22;8168;49.036;7.690;2023-09-19T09:32:29;17.60;99.90
16128;DHT22;8168;49.036;7.690;2023-09-19T09:35:07;17.60;99.90
16128;DHT22;8168;49.036;7.690;2023-09-19T09:37:43;17.70;99.90
16128;DHT22;8168;49.036;7.690;2023-09-19T09:40:13;17.70;99.90
16128;DHT22;8168;49.036;7.690;2023-09-19T09:42:45;17.80;99.90
16128;DHT22;8168;49.036;7.690;2023-09-19T09:45:20;17.90;99.90
16128;DHT22;8168;49.036;7.690;2023-09-19T09:48:03;17.90;99.90
16128;DHT22;8168;49.036;7.690;2023-09-19T09:50:48;17.90;99.90
16128;DHT22;8168;49.036;7.690;2023-09-19T09:53:26;18.00;99.90
16128;DHT22;8168;49.036;7.690;2023-09-19T09:56:06;17.90;99.90
16128;DHT22;8168;49.036;7.690;2023-09-19T09:58:59;17.90;99.90
16128;DHT22;8168;49.036;7.690;2023-09-19T10:01:46;17.80;99.90
16128;DHT22;8168;49.036;7.690;2023-09-19T10:04:37;17.90;99.90
16128;DHT22;8168;49.036;7.690;2023-09-19T10:07:30;17.80;99.90
16128;DHT22;8168;49.036;7.690;2023-09-19T10:10:03;17.80;99.90
16128;DHT22;8168;49.036;7.690;2023-09-19T10:12:47;17.90;99.90
16128;DHT22;8168;49.036;7.690;2023-09-19T10:15:19;18.00;99.90
16128;DHT22;8168;49.036;7.690;2023-09-19T10:17:55;18.00;99.90
16128;DHT22;8168;49.036;7.690;2023-09-19T10:20:28;18.10;99.90
16128;DHT22;8168;49.036;7.690;2023-09-19T10:23:10;18.10;99.90
16128;DHT22;8168;49.036;7.690;2023-09-19T10:25:44;18.10;99.90
16128;DHT22;8168;49.036;7.690;2023-09-19T10:28:18;18.10;99.90
16128;DHT22;8168;49.036;7.690;2023-09-19T10:30:52;18.10;99.90
16128;DHT22;8168;49.036;7.690;2023-09-19T10:33:24;18.20;99.90
16128;DHT22;8168;49.036;7.690;2023-09-19T10:35:59;18.30;99.90
16128;DHT22;8168;49.036;7.690;2023-09-19T10:38:31;18.30;99.90
16128;DHT22;8168;49.036;7.690;2023-09-19T10:41:03;18.50;99.90
16128;DHT22;8168;49.036;7.690;2023-09-19T10:43:35;18.60;99.90
16128;DHT22;8168;49.036;7.690;2023-09-19T10:46:08;18.70;99.90
16128;DHT22;8168;49.036;7.690;2023-09-19T10:48:43;18.70;99.90
16128;DHT22;8168;49.036;7.690;2023-09-19T10:51:23;18.60;99.90
16128;DHT22;8168;49.036;7.690;2023-09-19T10:54:18;18.70;99.90
16128;DHT22;8168;49.036;7.690;2023-09-19T10:56:50;18.90;99.90
16128;DHT22;8168;49.036;7.690;2023-09-19T10:59:22;19.10;99.90
16128;DHT22;8168;49.036;7.690;2023-09-19T11:01:56;19.40;99.90
16128;DHT22;8168;49.036;7.690;2023-09-19T11:04:34;19.50;99.90
16128;DHT22;8168;49.036;7.690;2023-09-19T11:07:07;19.70;99.90
16128;DHT22;8168;49.036;7.690;2023-09-19T11:09:45;19.70;99.90
16128;DHT22;8168;49.036;7.690;2023-09-19T11:27:09;19.80;99.90
16128;DHT22;8168;49.036;7.690;2023-09-19T11:29:40;19.90;99.90
16128;DHT22;8168;49.036;7.690;2023-09-19T11:32:11;20.00;99.90
16128;DHT22;8168;49.036;7.690;2023-09-19T11:34:44;20.00;99.90
16128;DHT22;8168;49.036;7.690;2023-09-19T11:40:09;20.10;99.90
16128;DHT22;8168;49.036;7.690;2023-09-19T11:42:49;20.30;99.90
16128;DHT22;8168;49.036;7.690;2023-09-19T11:48:20;20.10;99.90
16128;DHT22;8168;49.036;7.690;2023-09-19T11:50:56;20.10;99.90
16128;DHT22;8168;49.036;7.690;2023-09-19T11:53:31;20.10;99.90
16128;DHT22;8168;49.036;7.690;2023-09-19T11:56:06;20.10;99.90
16128;DHT22;8168;49.036;7.690;2023-09-19T11:58:41;20.10;99.90
16128;DHT22;8168;49.036;7.690;2023-09-19T12:01:13;20.20;99.90
16128;DHT22;8168;49.036;7.690;2023-09-19T12:03:46;20.20;99.90
16128;DHT22;8168;49.036;7.690;2023-09-19T12:06:20;20.30;99.90
16128;DHT22;8168;49.036;7.690;2023-09-19T12:08:52;20.40;99.90
16128;DHT22;8168;49.036;7.690;2023-09-19T12:11:30;20.40;99.90
16128;DHT22;8168;49.036;7.690;2023-09-19T12:14:03;20.30;99.90
16128;DHT22;8168;49.036;7.690;2023-09-19T12:16:34;20.30;99.90
16128;DHT22;8168;49.036;7.690;2023-09-19T12:19:20;20.30;99.90
16128;DHT22;8168;49.036;7.690;2023-09-19T12:21:59;20.40;99.90
16128;DHT22;8168;49.036;7.690;2023-09-19T12:24:33;20.40;99.90
16128;DHT22;8168;49.036;7.690;2023-09-19T12:27:06;20.60;99.90
16128;DHT22;8168;49.036;7.690;2023-09-19T12:29:48;20.80;99.90
16128;DHT22;8168;49.036;7.690;2023-09-19T12:32:36;20.50;99.90
16128;DHT22;8168;49.036;7.690;2023-09-19T12:35:10;20.30;99.90
16128;DHT22;8168;49.036;7.690;2023-09-19T12:37:56;20.30;99.90
16128;DHT22;8168;49.036;7.690;2023-09-19T12:40:27;20.50;99.90
16128;DHT22;8168;49.036;7.690;2023-09-19T12:42:59;20.70;99.90
16128;DHT22;8168;49.036;7.690;2023-09-19T12:45:31;20.90;99.90
16128;DHT22;8168;49.036;7.690;2023-09-19T12:48:25;21.10;99.90
16128;DHT22;8168;49.036;7.690;2023-09-19T12:51:05;21.10;99.90
16128;DHT22;8168;49.036;7.690;2023-09-19T12:53:40;21.00;99.90
16128;DHT22;8168;49.036;7.690;2023-09-19T12:56:14;20.90;99.90
16128;DHT22;8168;49.036;7.690;2023-09-19T12:58:55;20.90;99.90
16128;DHT22;8168;49.036;7.690;2023-09-19T13:01:26;20.90;99.90
16128;DHT22;8168;49.036;7.690;2023-09-19T13:04:17;20.90;99.90
16128;DHT22;8168;49.036;7.690;2023-09-19T13:06:50;21.00;99.90
16128;DHT22;8168;49.036;7.690;2023-09-19T13:09:23;21.00;99.90
16128;DHT22;8168;49.036;7.690;2023-09-19T13:12:33;20.90;99.90
16128;DHT22;8168;49.036;7.690;2023-09-19T13:15:11;20.80;99.90
16128;DHT22;8168;49.036;7.690;2023-09-19T13:17:50;20.70;99.90
16128;DHT22;8168;49.036;7.690;2023-09-19T13:20:25;20.70;99.90
16128;DHT22;8168;49.036;7.690;2023-09-19T13:22:58;20.60;99.90
16128;DHT22;8168;49.036;7.690;2023-09-19T13:25:38;20.70;99.90
16128;DHT22;8168;49.036;7.690;2023-09-19T13:28:10;20.80;99.90
16128;DHT22;8168;49.036;7.690;2023-09-19T13:30:41;20.70;99.90
16128;DHT22;8168;49.036;7.690;2023-09-19T13:33:15;20.90;99.90
16128;DHT22;8168;49.036;7.690;2023-09-19T13:35:51;21.10;99.90
16128;DHT22;8168;49.036;7.690;2023-09-19T13:38:23;21.10;99.90
16128;DHT22;8168;49.036;7.690;2023-09-19T13:40:54;21.10;99.90
16128;DHT22;8168;49.036;7.690;2023-09-19T13:43:24;21.00;99.90
16128;DHT22;8168;49.036;7.690;2023-09-19T13:45:55;20.90;99.90
16128;DHT22;8168;49.036;7.690;2023-09-19T13:48:28;20.70;99.90
16128;DHT22;8168;49.036;7.690;2023-09-19T13:51:01;20.70;99.90
16128;DHT22;8168;49.036;7.690;2023-09-19T13:53:31;20.70;99.90
16128;DHT22;8168;49.036;7.690;2023-09-19T13:56:02;20.90;99.90
16128;DHT22;8168;49.036;7.690;2023-09-19T13:58:32;21.10;99.90
16128;DHT22;8168;49.036;7.690;2023-09-19T14:01:03;21.20;99.90
16128;DHT22;8168;49.036;7.690;2023-09-19T14:03:34;21.20;99.90
16128;DHT22;8168;49.036;7.690;2023-09-19T14:06:06;21.10;99.90
16128;DHT22;8168;49.036;7.690;2023-09-19T14:08:36;21.00;99.90
16128;DHT22;8168;49.036;7.690;2023-09-19T14:11:09;21.00;99.90
16128;DHT22;8168;49.036;7.690;2023-09-19T14:13:39;21.00;99.90
16128;DHT22;8168;49.036;7.690;2023-09-19T14:16:10;21.10;99.90
16128;DHT22;8168;49.036;7.690;2023-09-19T14:18:41;21.20;99.90
16128;DHT22;8168;49.036;7.690;2023-09-19T14:21:12;21.30;99.90
16128;DHT22;8168;49.036;7.690;2023-09-19T14:23:43;21.40;99.90
16128;DHT22;8168;49.036;7.690;2023-09-19T14:26:14;21.50;99.90
16128;DHT22;8168;49.036;7.690;2023-09-19T14:28:46;21.50;99.90
16128;DHT22;8168;49.036;7.690;2023-09-19T14:31:17;21.50;99.90
16128;DHT22;8168;49.036;7.690;2023-09-19T14:33:53;21.60;99.90
16128;DHT22;8168;49.036;7.690;2023-09-19T14:36:25;21.60;99.90
16128;DHT22;8168;49.036;7.690;2023-09-19T14:38:56;21.60;99.90
16128;DHT22;8168;49.036;7.690;2023-09-19T14:41:29;21.60;99.90
16128;DHT22;8168;49.036;7.690;2023-09-19T14:44:02;21.60;99.90
16128;DHT22;8168;49.036;7.690;2023-09-19T14:46:35;21.60;99.90
16128;DHT22;8168;49.036;7.690;2023-09-19T14:49:06;21.50;99.90
16128;DHT22;8168;49.036;7.690;2023-09-19T14:51:38;21.40;99.90
16128;DHT22;8168;49.036;7.690;2023-09-19T14:54:10;21.30;99.90
16128;DHT22;8168;49.036;7.690;2023-09-19T14:56:41;21.30;99.90
16128;DHT22;8168;49.036;7.690;2023-09-19T14:59:11;21.30;99.90
16128;DHT22;8168;49.036;7.690;2023-09-19T15:01:43;21.30;99.90
16128;DHT22;8168;49.036;7.690;2023-09-19T15:04:14;21.30;99.90
16128;DHT22;8168;49.036;7.690;2023-09-19T15:06:45;21.30;99.90
16128;DHT22;8168;49.036;7.690;2023-09-19T15:09:16;21.30;99.90
16128;DHT22;8168;49.036;7.690;2023-09-19T15:11:49;21.30;99.90
16128;DHT22;8168;49.036;7.690;2023-09-19T15:14:20;21.30;99.90
16128;DHT22;8168;49.036;7.690;2023-09-19T15:16:51;21.30;99.90
16128;DHT22;8168;49.036;7.690;2023-09-19T15:19:22;21.40;99.90
16128;DHT22;8168;49.036;7.690;2023-09-19T15:21:53;21.40;99.90
16128;DHT22;8168;49.036;7.690;2023-09-19T15:24:23;21.40;99.90
16128;DHT22;8168;49.036;7.690;2023-09-19T15:26:56;21.40;99.90
16128;DHT22;8168;49.036;7.690;2023-09-19T15:29:27;21.40;99.90
16128;DHT22;8168;49.036;7.690;2023-09-19T15:31:58;21.50;99.90
16128;DHT22;8168;49.036;7.690;2023-09-19T15:34:32;21.50;99.90
16128;DHT22;8168;49.036;7.690;2023-09-19T15:37:03;21.50;99.90
16128;DHT22;8168;49.036;7.690;2023-09-19T15:39:33;21.50;99.90
16128;DHT22;8168;49.036;7.690;2023-09-19T15:42:04;21.60;99.90
16128;DHT22;8168;49.036;7.690;2023-09-19T15:44:35;21.60;99.90
16128;DHT22;8168;49.036;7.690;2023-09-19T15:47:07;21.70;99.90
16128;DHT22;8168;49.036;7.690;2023-09-19T15:49:38;21.80;99.90
16128;DHT22;8168;49.036;7.690;2023-09-19T15:52:09;21.80;99.90
16128;DHT22;8168;49.036;7.690;2023-09-19T15:54:39;21.80;99.90
16128;DHT22;8168;49.036;7.690;2023-09-19T15:57:14;21.80;99.90
16128;DHT22;8168;49.036;7.690;2023-09-19T15:59:45;21.80;99.90
16128;DHT22;8168;49.036;7.690;2023-09-19T16:02:17;21.80;99.90
16128;DHT22;8168;49.036;7.690;2023-09-19T16:04:48;21.80;99.90
16128;DHT22;8168;49.036;7.690;2023-09-19T16:07:18;21.80;99.90
16128;DHT22;8168;49.036;7.690;2023-09-19T16:09:49;21.80;99.90
16128;DHT22;8168;49.036;7.690;2023-09-19T16:12:19;21.80;99.90
16128;DHT22;8168;49.036;7.690;2023-09-19T16:14:50;21.80;99.90
16128;DHT22;8168;49.036;7.690;2023-09-19T16:17:20;21.70;99.90
16128;DHT22;8168;49.036;7.690;2023-09-19T16:19:51;21.70;99.90
16128;DHT22;8168;49.036;7.690;2023-09-19T16:22:24;21.70;99.90
16128;DHT22;8168;49.036;7.690;2023-09-19T16:24:56;21.70;99.90
16128;DHT22;8168;49.036;7.690;2023-09-19T16:27:27;21.60;99.90
16128;DHT22;8168;49.036;7.690;2023-09-19T16:29:57;21.50;99.90
16128;DHT22;8168;49.036;7.690;2023-09-19T16:32:28;21.40;99.90
16128;DHT22;8168;49.036;7.690;2023-09-19T16:34:59;21.30;99.90
16128;DHT22;8168;49.036;7.690;2023-09-19T16:37:29;21.30;99.90
16128;DHT22;8168;49.036;7.690;2023-09-19T16:40:00;21.30;99.90
16128;DHT22;8168;49.036;7.690;2023-09-19T16:42:31;21.30;99.90
16128;DHT22;8168;49.036;7.690;2023-09-19T16:45:02;21.30;99.90
16128;DHT22;8168;49.036;7.690;2023-09-19T16:47:32;21.30;99.90
16128;DHT22;8168;49.036;7.690;2023-09-19T16:50:03;21.30;99.90
16128;DHT22;8168;49.036;7.690;2023-09-19T16:52:36;21.30;99.90
16128;DHT22;8168;49.036;7.690;2023-09-19T16:55:06;21.30;99.90
16128;DHT22;8168;49.036;7.690;2023-09-19T16:57:38;21.30;99.90
16128;DHT22;8168;49.036;7.690;2023-09-19T17:00:09;21.20;99.90
16128;DHT22;8168;49.036;7.690;2023-09-19T17:02:40;21.20;99.90
16128;DHT22;8168;49.036;7.690;2023-09-19T17:05:11;21.10;99.90
16128;DHT22;8168;49.036;7.690;2023-09-19T17:07:42;21.00;99.90
16128;DHT22;8168;49.036;7.690;2023-09-19T17:10:12;21.00;99.90